Time;durP1;ratioP1;P1;durP2;ratioP2;P2;SDS_P1;SDS_P2;PMS_P1;PMS_P2;Temp;Humidity;BMP_temperature;BMP_pressure;BME280_temperature;BME280_humidity;BME280_pressure;Samples;Min_cycle;Max_cycle;Signal;HPM_P1;HPM_P2
2023/11/01 00:01:25;;;;;;;;;;;;;;;;;;6281756;28;20250;-82
2023/11/01 00:04:25;;;;;;;;;;;;;;;;;;6300075;28;20011;-82
2023/11/01 00:07:25;;;;;;;;;;;;;;;;;;6326226;28;20011;-82
2023/11/01 00:10:25;;;;;;;;;;;;;;;;;;6307515;28;19916;-82
2023/11/01 00:13:25;;;;;;;;;;;;;;;;;;6322036;28;19962;-82
2023/11/01 00:16:25;;;;;;;;;;;;;;;;;;6276054;28;20389;-82
2023/11/01 00:19:25;;;;;;;;;;;;;;;;;;6311101;28;19968;-84
2023/11/01 00:22:26;;;;;;;;;;;;;;;;;;6300278;28;19974;-87
2023/11/01 00:25:26;;;;;;;;;;;;;;;;;;6315847;28;19917;-84
2023/11/01 00:28:29;;;;;;;;;;;;;;;;;;6300634;28;20445;-85
2023/11/01 00:31:29;;;;;;;;;;;;;;;;;;6297454;28;20007;-85
2023/11/01 00:34:29;;;;;;;;;;;;;;;;;;6315820;28;19958;-84
2023/11/01 00:37:29;;;;;;;;;;;;;;;;;;6324049;28;19912;-84
2023/11/01 00:40:29;;;;;;;;;;;;;;;;;;6325642;28;19908;-84
2023/11/01 00:43:29;;;;;;;;;;;;;;;;;;6326037;28;19978;-84
2023/11/01 00:46:30;;;;;;;;;;;;;;;;;;6325809;28;19966;-85
2023/11/01 00:49:30;;;;;;;;;;;;;;;;;;6286148;28;19913;-84
2023/11/01 00:52:30;;;;;;;;;;;;;;;;;;6308214;28;20057;-85
2023/11/01 00:55:30;;;;;;;;;;;;;;;;;;6301948;28;20384;-84
2023/11/01 00:58:30;;;;;;;;;;;;;;;;;;6300482;28;19908;-85
2023/11/01 01:01:31;;;;;;;;;;;;;;;;;;6301313;28;19908;-85
2023/11/01 01:04:31;;;;;;;;;;;;;;;;;;6298831;28;19999;-84
2023/11/01 01:07:32;;;;;;;;;;;;;;;;;;6299692;28;19954;-84
2023/11/01 01:10:32;;;;;;;;;;;;;;;;;;6301390;28;19916;-85
2023/11/01 01:13:32;;;;;;;;;;;;;;;;;;6325339;28;20002;-84
2023/11/01 01:16:32;;;;;;;;;;;;;;;;;;6325434;28;19958;-84
2023/11/01 01:19:32;;;;;;;;;;;;;;;;;;6298615;28;19913;-85
2023/11/01 01:22:32;;;;;;;;;;;;;;;;;;6298058;28;20339;-84
2023/11/01 01:25:32;;;;;;;;;;;;;;;;;;6298738;28;20288;-84
2023/11/01 01:28:32;;;;;;;;;;;;;;;;;;6299798;28;19917;-82
2023/11/01 01:31:33;;;;;;;;;;;;;;;;;;6293453;28;19935;-81
2023/11/01 01:34:33;;;;;;;;;;;;;;;;;;6273937;28;19909;-81
2023/11/01 01:37:33;;;;;;;;;;;;;;;;;;6307224;28;19947;-81
2023/11/01 01:40:34;;;;;;;;;;;;;;;;;;6302702;28;19978;-81
2023/11/01 01:43:34;;;;;;;;;;;;;;;;;;6299423;28;19909;-81
2023/11/01 01:46:34;;;;;;;;;;;;;;;;;;6317957;28;20010;-81
2023/11/01 01:49:34;;;;;;;;;;;;;;;;;;6290085;28;20420;-85
2023/11/01 01:52:34;;;;;;;;;;;;;;;;;;6289927;28;19912;-81
2023/11/01 01:55:34;;;;;;;;;;;;;;;;;;6277034;28;19951;-81
2023/11/01 01:58:34;;;;;;;;;;;;;;;;;;6313739;28;20015;-81
2023/11/01 02:01:35;;;;;;;;;;;;;;;;;;6292629;28;19928;-82
2023/11/01 02:04:35;;;;;;;;;;;;;;;;;;6283169;28;19913;-81
2023/11/01 02:07:35;;;;;;;;;;;;;;;;;;6277015;28;19924;-81
2023/11/01 02:10:35;;;;;;;;;;;;;;;;;;6291253;28;19924;-81
2023/11/01 02:13:35;;;;;;;;;;;;;;;;;;6306511;28;19916;-81
2023/11/01 02:16:35;;;;;;;;;;;;;;;;;;6298152;28;19913;-81
2023/11/01 02:19:35;;;;;;;;;;;;;;;;;;6288247;28;19920;-81
2023/11/01 02:22:35;;;;;;;;;;;;;;;;;;6275252;28;20291;-81
2023/11/01 02:25:35;;;;;;;;;;;;;;;;;;6293791;28;20258;-81
2023/11/01 02:28:36;;;;;;;;;;;;;;;;;;6296908;28;20284;-81
2023/11/01 02:31:36;;;;;;;;;;;;;;;;;;6313551;28;20284;-81
2023/11/01 02:34:36;;;;;;;;;;;;;;;;;;6297336;28;20428;-81
2023/11/01 02:37:36;;;;;;;;;;;;;;;;;;6294831;28;19958;-81
2023/11/01 02:40:36;;;;;;;;;;;;;;;;;;6297451;28;19958;-81
2023/11/01 02:43:36;;;;;;;;;;;;;;;;;;6307277;28;19995;-81
2023/11/01 02:46:36;;;;;;;;;;;;;;;;;;6308504;28;19957;-81
2023/11/01 02:49:36;;;;;;;;;;;;;;;;;;6274383;28;19917;-81
2023/11/01 02:52:37;;;;;;;;;;;;;;;;;;6296258;28;19912;-81
2023/11/01 02:55:38;;;;;;;;;;;;;;;;;;6313023;28;20365;-81
2023/11/01 02:58:38;;;;;;;;;;;;;;;;;;6295790;28;19916;-81
2023/11/01 03:01:39;;;;;;;;;;;;;;;;;;6295777;28;20345;-81
2023/11/01 03:04:39;;;;;;;;;;;;;;;;;;6293311;28;19916;-82
2023/11/01 03:07:39;;;;;;;;;;;;;;;;;;6291958;28;19978;-81
2023/11/01 03:10:39;;;;;;;;;;;;;;;;;;6295734;28;19934;-81
2023/11/01 03:13:39;;;;;;;;;;;;;;;;;;6313324;28;19912;-81
2023/11/01 03:16:40;;;;;;;;;;;;;;;;;;6289139;28;20007;-81
2023/11/01 03:19:41;;;;;;;;;;;;;;;;;;6301925;28;19916;-82
2023/11/01 03:22:41;;;;;;;;;;;;;;;;;;6281194;28;19981;-81
2023/11/01 03:25:41;;;;;;;;;;;;;;;;;;6297155;28;19912;-81
2023/11/01 03:28:41;;;;;;;;;;;;;;;;;;6288918;28;19951;-82
2023/11/01 03:31:41;;;;;;;;;;;;;;;;;;6276849;28;19956;-82
2023/11/01 03:34:41;;;;;;;;;;;;;;;;;;6299565;28;19919;-82
2023/11/01 03:37:41;;;;;;;;;;;;;;;;;;6305672;28;19913;-82
2023/11/01 03:40:41;;;;;;;;;;;;;;;;;;6304428;28;20278;-82
2023/11/01 03:43:42;;;;;;;;;;;;;;;;;;6303104;28;19917;-81
2023/11/01 03:46:42;;;;;;;;;;;;;;;;;;6316061;28;20370;-82
2023/11/01 03:49:42;;;;;;;;;;;;;;;;;;6277903;28;19967;-81
2023/11/01 03:52:42;;;;;;;;;;;;;;;;;;6281315;28;19938;-81
2023/11/01 03:55:42;;;;;;;;;;;;;;;;;;6283708;28;19939;-81
2023/11/01 03:58:42;;;;;;;;;;;;;;;;;;6282934;28;19959;-82
2023/11/01 04:01:43;;;;;;;;;;;;;;;;;;6285018;28;19913;-82
2023/11/01 04:04:43;;;;;;;;;;;;;;;;;;6293815;28;19940;-82
2023/11/01 04:07:43;;;;;;;;;;;;;;;;;;6280212;28;19923;-82
2023/11/01 04:10:43;;;;;;;;;;;;;;;;;;6284245;28;19920;-81
2023/11/01 04:13:43;;;;;;;;;;;;;;;;;;6283696;28;21263;-83
2023/11/01 04:16:43;;;;;;;;;;;;;;;;;;6281981;28;20002;-84
2023/11/01 04:19:43;;;;;;;;;;;;;;;;;;6282888;28;19916;-82
2023/11/01 04:22:44;;;;;;;;;;;;;;;;;;6299484;28;20381;-83
2023/11/01 04:25:44;;;;;;;;;;;;;;;;;;6281183;28;19916;-82
2023/11/01 04:28:44;;;;;;;;;;;;;;;;;;6294649;28;19917;-81
2023/11/01 04:31:44;;;;;;;;;;;;;;;;;;6280200;28;19920;-84
2023/11/01 04:34:44;;;;;;;;;;;;;;;;;;6278478;28;19975;-82
2023/11/01 04:37:44;;;;;;;;;;;;;;;;;;6275636;28;19913;-83
2023/11/01 04:40:44;;;;;;;;;;;;;;;;;;6299111;28;20211;-81
2023/11/01 04:43:44;;;;;;;;;;;;;;;;;;6299630;28;20361;-82
2023/11/01 04:46:45;;;;;;;;;;;;;;;;;;6296275;28;19924;-82
2023/11/01 04:49:45;;;;;;;;;;;;;;;;;;6278535;28;19963;-86
2023/11/01 04:52:45;;;;;;;;;;;;;;;;;;6282232;28;20048;-82
2023/11/01 04:55:45;;;;;;;;;;;;;;;;;;6294391;28;20035;-82
2023/11/01 04:58:45;;;;;;;;;;;;;;;;;;6302055;28;19916;-85
2023/11/01 05:01:47;;;;;;;;;;;;;;;;;;6283355;28;20424;-86
2023/11/01 05:04:47;;;;;;;;;;;;;;;;;;6295854;28;20072;-87
2023/11/01 05:07:48;;;;;;;;;;;;;;;;;;6283136;28;20385;-85
2023/11/01 05:10:48;;;;;;;;;;;;;;;;;;6290302;28;19916;-85
2023/11/01 05:13:48;;;;;;;;;;;;;;;;;;6280219;28;19924;-85
2023/11/01 05:16:48;;;;;;;;;;;;;;;;;;6297236;28;19916;-85
2023/11/01 05:19:48;;;;;;;;;;;;;;;;;;6278890;28;19960;-85
2023/11/01 05:22:48;;;;;;;;;;;;;;;;;;6296485;28;19925;-85
2023/11/01 05:25:49;;;;;;;;;;;;;;;;;;6275065;28;19920;-85
2023/11/01 05:28:49;;;;;;;;;;;;;;;;;;6283321;28;19985;-87
2023/11/01 05:31:49;;;;;;;;;;;;;;;;;;6297096;28;20339;-85
2023/11/01 05:34:49;;;;;;;;;;;;;;;;;;6276870;28;20066;-85
2023/11/01 05:37:49;;;;;;;;;;;;;;;;;;6282681;28;20007;-85
2023/11/01 05:40:49;;;;;;;;;;;;;;;;;;6273938;28;19912;-88
2023/11/01 05:43:49;;;;;;;;;;;;;;;;;;6292581;28;19919;-85
2023/11/01 05:46:50;;;;;;;;;;;;;;;;;;6276745;28;20019;-84
2023/11/01 05:49:50;;;;;;;;;;;;;;;;;;6275069;28;20344;-88
2023/11/01 05:52:50;;;;;;;;;;;;;;;;;;6273949;28;20369;-85
2023/11/01 05:55:52;;;;;;;;;;;;;;;;;;6283710;28;19959;-85
2023/11/01 05:59:00;;;;;;;;;;;;;;;;;;6278105;28;19917;-84
2023/11/01 06:02:00;;;;;;;;;;;;;;;;;;6274919;28;20454;-84
2023/11/01 06:05:00;;;;;;;;;;;;;;;;;;6282716;28;19912;-85
2023/11/01 06:08:00;;;;;;;;;;;;;;;;;;6292162;28;19923;-84
2023/11/01 06:11:00;;;;;;;;;;;;;;;;;;6275285;28;19913;-84
2023/11/01 06:14:01;;;;;;;;;;;;;;;;;;6273937;28;20309;-85
2023/11/01 06:17:01;;;;;;;;;;;;;;;;;;6289425;28;20381;-85
2023/11/01 06:20:01;;;;;;;;;;;;;;;;;;6278578;28;19916;-85
2023/11/01 06:23:04;;;;;;;;;;;;;;;;;;6293040;28;19920;-85
2023/11/01 06:26:05;;;;;;;;;;;;;;;;;;6279096;28;19917;-84
2023/11/01 06:29:07;;;;;;;;;;;;;;;;;;6280509;28;20669;-84
2023/11/01 06:32:08;;;;;;;;;;;;;;;;;;6272549;28;19920;-83
2023/11/01 06:35:08;;;;;;;;;;;;;;;;;;6273349;28;19923;-85
2023/11/01 06:38:08;;;;;;;;;;;;;;;;;;6298592;28;19913;-84
2023/11/01 06:41:08;;;;;;;;;;;;;;;;;;6296036;28;20295;-85
2023/11/01 06:44:09;;;;;;;;;;;;;;;;;;6277154;28;20286;-88
2023/11/01 06:47:09;;;;;;;;;;;;;;;;;;6278629;28;19946;-84
2023/11/01 06:50:09;;;;;;;;;;;;;;;;;;6276279;28;19920;-84
2023/11/01 06:53:09;;;;;;;;;;;;;;;;;;6278083;28;19959;-84
2023/11/01 06:56:09;;;;;;;;;;;;;;;;;;6281460;28;20008;-85
2023/11/01 06:59:10;;;;;;;;;;;;;;;;;;6279067;28;20283;-84
2023/11/01 07:02:10;;;;;;;;;;;;;;;;;;6281301;28;19909;-84
2023/11/01 07:05:10;;;;;;;;;;;;;;;;;;6272724;28;19955;-84
2023/11/01 07:08:10;;;;;;;;;;;;;;;;;;6277919;28;19913;-84
2023/11/01 07:11:10;;;;;;;;;;;;;;;;;;6275106;28;19924;-84
2023/11/01 07:14:10;;;;;;;;;;;;;;;;;;6275231;28;19912;-84
2023/11/01 07:17:10;;;;;;;;;;;;;;;;;;6281998;28;19913;-84
2023/11/01 07:20:10;;;;;;;;;;;;;;;;;;6272419;28;19924;-84
2023/11/01 07:23:11;;;;;;;;;;;;;;;;;;6275615;28;19920;-85
2023/11/01 07:26:11;;;;;;;;;;;;;;;;;;6292862;28;19970;-83
2023/11/01 07:29:11;;;;;;;;;;;;;;;;;;6291840;28;19921;-84
2023/11/01 07:32:11;;;;;;;;;;;;;;;;;;6289416;28;20140;-85
2023/11/01 07:35:11;;;;;;;;;;;;;;;;;;6277120;28;19986;-84
2023/11/01 07:38:11;;;;;;;;;;;;;;;;;;6274917;28;20107;-85
2023/11/01 07:41:11;;;;;;;;;;;;;;;;;;6278869;28;20358;-86
2023/11/01 07:44:12;;;;;;;;;;;;;;;;;;6276286;28;20288;-85
2023/11/01 07:47:13;;;;;;;;;;;;;;;;;;6289771;28;19935;-84
2023/11/01 07:50:13;;;;;;;;;;;;;;;;;;6293149;28;20583;-85
2023/11/01 07:53:14;;;;;;;;;;;;;;;;;;6292768;28;19966;-84
2023/11/01 07:56:14;;;;;;;;;;;;;;;;;;6277755;28;19912;-84
2023/11/01 07:59:14;;;;;;;;;;;;;;;;;;6281164;28;20286;-84
2023/11/01 08:02:15;;;;;;;;;;;;;;;;;;6275177;28;20046;-85
2023/11/01 08:05:15;;;;;;;;;;;;;;;;;;6278094;28;19954;-85
2023/11/01 08:08:15;;;;;;;;;;;;;;;;;;6277995;28;19930;-84
2023/11/01 08:11:15;;;;;;;;;;;;;;;;;;6281674;28;19928;-85
2023/11/01 08:14:15;;;;;;;;;;;;;;;;;;6295313;28;19949;-85
2023/11/01 08:17:15;;;;;;;;;;;;;;;;;;6280612;28;19958;-85
2023/11/01 08:20:16;;;;;;;;;;;;;;;;;;6278289;28;19962;-88
2023/11/01 08:23:16;;;;;;;;;;;;;;;;;;6284858;28;20263;-85
2023/11/01 08:26:16;;;;;;;;;;;;;;;;;;6277042;28;19917;-86
2023/11/01 08:29:16;;;;;;;;;;;;;;;;;;6281232;28;19924;-83
2023/11/01 08:32:16;;;;;;;;;;;;;;;;;;6285081;28;19935;-83
2023/11/01 08:35:16;;;;;;;;;;;;;;;;;;6277122;28;20286;-84
2023/11/01 08:38:16;;;;;;;;;;;;;;;;;;6298985;28;20385;-85
2023/11/01 08:41:18;;;;;;;;;;;;;;;;;;6282386;28;19912;-88
2023/11/01 08:44:18;;;;;;;;;;;;;;;;;;6294967;28;19916;-86
2023/11/01 08:47:18;;;;;;;;;;;;;;;;;;6302531;28;20284;-84
2023/11/01 08:50:18;;;;;;;;;;;;;;;;;;6291818;28;19922;-85
2023/11/01 08:53:18;;;;;;;;;;;;;;;;;;6286752;28;20492;-85
2023/11/01 08:56:18;;;;;;;;;;;;;;;;;;6281045;28;19967;-84
2023/11/01 08:59:19;;;;;;;;;;;;;;;;;;6303695;28;20067;-84
2023/11/01 09:02:19;;;;;;;;;;;;;;;;;;6299754;28;20381;-86
2023/11/01 09:05:20;;;;;;;;;;;;;;;;;;6295962;28;19917;-85
2023/11/01 09:08:21;;;;;;;;;;;;;;;;;;6278493;28;20388;-89
2023/11/01 09:11:23;;;;;;;;;;;;;;;;;;6281914;28;19916;-87
2023/11/01 09:14:23;;;;;;;;;;;;;;;;;;6301796;28;19970;-86
2023/11/01 09:17:24;;;;;;;;;;;;;;;;;;6305842;28;19913;-86
2023/11/01 09:20:24;;;;;;;;;;;;;;;;;;6281162;28;19923;-86
2023/11/01 09:23:24;;;;;;;;;;;;;;;;;;6279313;28;19920;-87
2023/11/01 09:26:25;;;;;;;;;;;;;;;;;;6289350;28;19916;-86
2023/11/01 09:29:25;;;;;;;;;;;;;;;;;;6302995;28;19924;-86
2023/11/01 09:32:26;;;;;;;;;;;;;;;;;;6280807;28;19991;-87
2023/11/01 09:35:26;;;;;;;;;;;;;;;;;;6295410;28;20258;-84
2023/11/01 09:38:26;;;;;;;;;;;;;;;;;;6292739;28;19913;-84
2023/11/01 09:41:26;;;;;;;;;;;;;;;;;;6289001;28;19913;-83
2023/11/01 09:44:26;;;;;;;;;;;;;;;;;;6282284;28;20382;-86
2023/11/01 09:47:27;;;;;;;;;;;;;;;;;;6281226;28;20551;-86
2023/11/01 09:50:27;;;;;;;;;;;;;;;;;;6278694;28;19943;-86
2023/11/01 09:53:27;;;;;;;;;;;;;;;;;;6274466;28;19919;-84
2023/11/01 09:56:28;;;;;;;;;;;;;;;;;;6286382;28;19969;-84
2023/11/01 09:59:28;;;;;;;;;;;;;;;;;;6286047;28;20327;-86
2023/11/01 10:02:28;;;;;;;;;;;;;;;;;;6294954;28;19912;-88
2023/11/01 10:05:28;;;;;;;;;;;;;;;;;;6282730;28;20301;-86
2023/11/01 10:08:29;;;;;;;;;;;;;;;;;;6276878;28;19921;-85
2023/11/01 10:11:31;;;;;;;;;;;;;;;;;;6297142;28;19961;-83
2023/11/01 10:14:31;;;;;;;;;;;;;;;;;;6281880;28;19926;-82
2023/11/01 10:17:31;;;;;;;;;;;;;;;;;;6272272;28;20013;-83
2023/11/01 10:20:31;;;;;;;;;;;;;;;;;;6270538;28;19920;-83
2023/11/01 10:23:31;;;;;;;;;;;;;;;;;;6269836;28;20397;-83
2023/11/01 10:26:32;;;;;;;;;;;;;;;;;;6283349;28;19970;-82
2023/11/01 10:29:32;;;;;;;;;;;;;;;;;;6278812;28;19917;-82
2023/11/01 10:32:32;;;;;;;;;;;;;;;;;;6295329;28;19923;-83
2023/11/01 10:35:33;;;;;;;;;;;;;;;;;;6276050;28;20399;-82
2023/11/01 10:38:33;;;;;;;;;;;;;;;;;;6278388;28;20259;-82
2023/11/01 10:41:33;;;;;;;;;;;;;;;;;;6285989;28;19958;-82
2023/11/01 10:44:33;;;;;;;;;;;;;;;;;;6274229;28;19975;-83
2023/11/01 10:47:34;;;;;;;;;;;;;;;;;;6300028;28;19917;-85
2023/11/01 10:50:34;;;;;;;;;;;;;;;;;;6298329;28;19923;-85
2023/11/01 10:53:35;;;;;;;;;;;;;;;;;;6296002;28;19920;-85
2023/11/01 10:59:56;;;;;;;;;;;;;;;;;;6215110;28;19928;-84
2023/11/01 11:02:57;;;;;;;;;;;;;;;;;;6215773;28;19921;-84
2023/11/01 11:05:57;;;;;;;;;;;;;;;;;;6217359;28;19921;-86
2023/11/01 11:08:57;;;;;;;;;;;;;;;;;;6202204;28;19929;-86
2023/11/01 11:11:57;;;;;;;;;;;;;;;;;;6218653;28;20309;-86
2023/11/01 11:14:59;;;;;;;;;;;;;;;;;;6217458;28;20449;-84
2023/11/01 11:17:59;;;;;;;;;;;;;;;;;;6218469;28;19917;-86
2023/11/01 11:21:00;;;;;;;;;;;;;;;;;;6215502;28;19951;-86
2023/11/01 11:24:00;;;;;;;;;;;;;;;;;;6214321;28;19925;-82
2023/11/01 11:27:00;;;;;;;;;;;;;;;;;;6216089;28;20084;-84
2023/11/01 11:30:00;;;;;;;;;;;;;;;;;;6214226;28;19964;-82
2023/11/01 11:33:00;;;;;;;;;;;;;;;;;;6215270;28;19913;-83
2023/11/01 11:36:00;;;;;;;;;;;;;;;;;;6229668;28;19916;-84
2023/11/01 11:39:01;;;;;;;;;;;;;;;;;;6281023;28;19913;-88
2023/11/01 11:42:02;;;;;;;;;;;;;;;;;;6278710;28;19913;-88
2023/11/01 11:45:02;;;;;;;;;;;;;;;;;;6282300;28;20339;-84
2023/11/01 11:48:04;;;;;;;;;;;;;;;;;;6285417;28;20011;-88
2023/11/01 11:51:05;;;;;;;;;;;;;;;;;;6282477;28;19925;-86
2023/11/01 11:54:05;;;;;;;;;;;;;;;;;;6278313;28;20001;-86
2023/11/01 11:57:05;;;;;;;;;;;;;;;;;;6300998;28;19913;-86
2023/11/01 12:00:07;;;;;;;;;;;;;;;;;;6287689;28;19913;-86
2023/11/01 12:03:07;;;;;;;;;;;;;;;;;;6297272;28;19917;-88
2023/11/01 12:06:07;;;;;;;;;;;;;;;;;;6280740;28;20339;-89
2023/11/01 12:09:08;;;;;;;;;;;;;;;;;;6281418;28;19917;-86
2023/11/01 12:12:08;;;;;;;;;;;;;;;;;;6283905;28;19962;-87
2023/11/01 12:15:08;;;;;;;;;;;;;;;;;;6294047;28;20261;-86
2023/11/01 12:18:09;;;;;;;;;;;;;;;;;;6312284;28;19922;-87
2023/11/01 12:21:09;;;;;;;;;;;;;;;;;;6286258;28;19918;-86
2023/11/01 12:24:15;;;;;;;;;;;;;;;;;;6282306;28;19968;-87
2023/11/01 12:27:17;;;;;;;;;;;;;;;;;;6282262;28;20012;-85
2023/11/01 12:30:17;;;;;;;;;;;;;;;;;;6282553;28;19917;-86
2023/11/01 12:33:17;;;;;;;;;;;;;;;;;;6300963;28;19986;-86
2023/11/01 12:36:18;;;;;;;;;;;;;;;;;;6298294;28;19916;-85
2023/11/01 12:39:18;;;;;;;;;;;;;;;;;;6286752;28;19913;-86
2023/11/01 12:42:18;;;;;;;;;;;;;;;;;;6280326;28;19917;-89
2023/11/01 12:45:18;;;;;;;;;;;;;;;;;;6283016;28;19959;-85
2023/11/01 12:48:19;;;;;;;;;;;;;;;;;;6285094;28;19993;-87
2023/11/01 12:51:19;;;;;;;;;;;;;;;;;;6281028;28;20376;-84
2023/11/01 12:54:19;;;;;;;;;;;;;;;;;;6281833;28;19971;-85
2023/11/01 12:57:19;;;;;;;;;;;;;;;;;;6282370;28;19919;-85
2023/11/01 13:00:19;;;;;;;;;;;;;;;;;;6282721;28;19943;-85
2023/11/01 13:03:20;;;;;;;;;;;;;;;;;;6280521;28;19913;-85
2023/11/01 13:06:20;;;;;;;;;;;;;;;;;;6294805;28;19982;-85
2023/11/01 13:09:20;;;;;;;;;;;;;;;;;;6281470;28;19925;-85
2023/11/01 13:12:20;;;;;;;;;;;;;;;;;;6287569;28;19921;-86
2023/11/01 13:15:21;;;;;;;;;;;;;;;;;;6278990;28;19912;-85
2023/11/01 13:18:21;;;;;;;;;;;;;;;;;;6278308;28;19917;-86
2023/11/01 13:21:21;;;;;;;;;;;;;;;;;;6277860;28;19913;-87
2023/11/01 13:24:21;;;;;;;;;;;;;;;;;;6280894;28;20453;-84
2023/11/01 13:27:21;;;;;;;;;;;;;;;;;;6278953;28;19924;-85
2023/11/01 13:30:22;;;;;;;;;;;;;;;;;;6291919;28;19916;-86
2023/11/01 13:33:22;;;;;;;;;;;;;;;;;;6294846;28;19974;-86
2023/11/01 13:36:22;;;;;;;;;;;;;;;;;;6274718;28;19971;-85
2023/11/01 13:39:23;;;;;;;;;;;;;;;;;;6294480;28;19920;-86
2023/11/01 13:42:23;;;;;;;;;;;;;;;;;;6278251;28;19920;-86
2023/11/01 13:45:23;;;;;;;;;;;;;;;;;;6280837;28;20442;-86
2023/11/01 13:48:24;;;;;;;;;;;;;;;;;;6294007;28;20035;-86
2023/11/01 13:51:24;;;;;;;;;;;;;;;;;;6295085;28;19921;-88
2023/11/01 13:54:24;;;;;;;;;;;;;;;;;;6292139;28;19921;-85
2023/11/01 13:57:24;;;;;;;;;;;;;;;;;;6286750;28;19967;-86
2023/11/01 14:00:25;;;;;;;;;;;;;;;;;;6276467;28;19913;-85
2023/11/01 14:03:26;;;;;;;;;;;;;;;;;;6280706;28;19917;-85
2023/11/01 14:06:26;;;;;;;;;;;;;;;;;;6276599;28;19916;-86
2023/11/01 14:09:26;;;;;;;;;;;;;;;;;;6277070;28;19916;-86
2023/11/01 14:12:26;;;;;;;;;;;;;;;;;;6281494;28;19912;-85
2023/11/01 14:15:26;;;;;;;;;;;;;;;;;;6276741;28;19912;-85
2023/11/01 14:18:26;;;;;;;;;;;;;;;;;;6281060;28;19920;-85
2023/11/01 14:21:27;;;;;;;;;;;;;;;;;;6277627;28;19908;-86
2023/11/01 14:24:27;;;;;;;;;;;;;;;;;;6291403;28;19920;-86
2023/11/01 14:27:27;;;;;;;;;;;;;;;;;;6277639;28;19916;-87
2023/11/01 14:30:27;;;;;;;;;;;;;;;;;;6283666;28;20005;-85
2023/11/01 14:33:27;;;;;;;;;;;;;;;;;;6314064;28;19995;-85
2023/11/01 14:36:27;;;;;;;;;;;;;;;;;;5922987;27;10000039;-86
2023/11/01 14:39:27;;;;;;;;;;;;;;;;;;6274905;28;19917;-85
2023/11/01 14:42:28;;;;;;;;;;;;;;;;;;6276961;28;19936;-87
2023/11/01 14:45:28;;;;;;;;;;;;;;;;;;6284611;28;19912;-87
2023/11/01 14:48:28;;;;;;;;;;;;;;;;;;6284207;28;19921;-89
2023/11/01 14:51:28;;;;;;;;;;;;;;;;;;6283001;28;19917;-87
2023/11/01 14:54:30;;;;;;;;;;;;;;;;;;6293472;28;19927;-87
2023/11/01 14:57:30;;;;;;;;;;;;;;;;;;6292257;28;20348;-86
2023/11/01 15:00:30;;;;;;;;;;;;;;;;;;6276675;28;19921;-87
2023/11/01 15:03:30;;;;;;;;;;;;;;;;;;6271743;28;19974;-89
2023/11/01 15:06:31;;;;;;;;;;;;;;;;;;6294860;28;20317;-86
2023/11/01 15:09:32;;;;;;;;;;;;;;;;;;6292176;28;21254;-87
2023/11/01 15:12:32;;;;;;;;;;;;;;;;;;6279239;28;20003;-88
2023/11/01 15:15:32;;;;;;;;;;;;;;;;;;6274142;28;20004;-86
2023/11/01 15:18:32;;;;;;;;;;;;;;;;;;6274103;28;19921;-89
2023/11/01 15:21:32;;;;;;;;;;;;;;;;;;6283635;28;20058;-91
2023/11/01 15:24:32;;;;;;;;;;;;;;;;;;6270841;28;19917;-86
2023/11/01 15:27:32;;;;;;;;;;;;;;;;;;6291196;28;19916;-87
2023/11/01 15:30:32;;;;;;;;;;;;;;;;;;6293766;28;19924;-86
2023/11/01 15:33:33;;;;;;;;;;;;;;;;;;6274092;28;19919;-87
2023/11/01 15:36:33;;;;;;;;;;;;;;;;;;6275746;28;20273;-88
2023/11/01 15:39:33;;;;;;;;;;;;;;;;;;6294769;28;20011;-87
2023/11/01 15:42:33;;;;;;;;;;;;;;;;;;6287059;28;19923;-87
2023/11/01 15:45:33;;;;;;;;;;;;;;;;;;6271682;28;20297;-85
2023/11/01 15:48:34;;;;;;;;;;;;;;;;;;6268777;28;19920;-88
2023/11/01 15:51:34;;;;;;;;;;;;;;;;;;6276294;28;19925;-85
2023/11/01 15:54:36;;;;;;;;;;;;;;;;;;6275564;28;19920;-86
2023/11/01 15:57:36;;;;;;;;;;;;;;;;;;6277068;28;19935;-85
2023/11/01 16:00:36;;;;;;;;;;;;;;;;;;6278684;28;19917;-87
2023/11/01 16:03:36;;;;;;;;;;;;;;;;;;6294070;28;19963;-86
2023/11/01 16:06:36;;;;;;;;;;;;;;;;;;6277872;28;19951;-84
2023/11/01 16:09:38;;;;;;;;;;;;;;;;;;6273028;28;19927;-86
2023/11/01 16:12:38;;;;;;;;;;;;;;;;;;6316854;28;19912;-86
2023/11/01 16:15:38;;;;;;;;;;;;;;;;;;6289788;28;20336;-86
2023/11/01 16:18:38;;;;;;;;;;;;;;;;;;6283357;28;19920;-86
2023/11/01 16:21:38;;;;;;;;;;;;;;;;;;6279585;28;19925;-87
2023/11/01 16:24:38;;;;;;;;;;;;;;;;;;6278703;28;19963;-87
2023/11/01 16:27:39;;;;;;;;;;;;;;;;;;6275018;28;20039;-86
2023/11/01 16:30:39;;;;;;;;;;;;;;;;;;6283711;28;19924;-84
2023/11/01 16:33:39;;;;;;;;;;;;;;;;;;6318462;28;19955;-85
2023/11/01 16:36:39;;;;;;;;;;;;;;;;;;6327070;28;20007;-85
2023/11/01 16:39:39;;;;;;;;;;;;;;;;;;5958319;28;9999845;-85
2023/11/01 16:42:39;;;;;;;;;;;;;;;;;;6293177;28;19935;-85
2023/11/01 16:45:39;;;;;;;;;;;;;;;;;;6290068;28;19981;-85
2023/11/01 16:48:39;;;;;;;;;;;;;;;;;;6300620;28;19916;-89
2023/11/01 16:51:40;;;;;;;;;;;;;;;;;;6277341;28;19916;-85
2023/11/01 16:54:40;;;;;;;;;;;;;;;;;;6283740;28;19916;-85
2023/11/01 16:57:40;;;;;;;;;;;;;;;;;;6308301;28;19912;-85
2023/11/01 17:00:41;;;;;;;;;;;;;;;;;;6307646;28;19923;-85
2023/11/01 17:03:41;;;;;;;;;;;;;;;;;;6296262;28;20294;-86
2023/11/01 17:06:41;;;;;;;;;;;;;;;;;;6277633;28;20011;-85
2023/11/01 17:09:41;;;;;;;;;;;;;;;;;;6288026;28;19924;-85
2023/11/01 17:12:41;;;;;;;;;;;;;;;;;;6275618;28;19919;-85
2023/11/01 17:15:41;;;;;;;;;;;;;;;;;;6297538;28;19913;-85
2023/11/01 17:18:41;;;;;;;;;;;;;;;;;;6313750;28;19932;-86
2023/11/01 17:21:43;;;;;;;;;;;;;;;;;;6313972;28;19920;-85
2023/11/01 17:24:47;;;;;;;;;;;;;;;;;;6281944;28;19909;-85
2023/11/01 17:27:47;;;;;;;;;;;;;;;;;;6305642;28;19995;-85
2023/11/01 17:30:47;;;;;;;;;;;;;;;;;;6297324;28;19912;-85
2023/11/01 17:33:48;;;;;;;;;;;;;;;;;;6299694;28;19908;-84
2023/11/01 17:36:48;;;;;;;;;;;;;;;;;;6315393;28;20352;-84
2023/11/01 17:39:51;;;;;;;;;;;;;;;;;;6301817;28;20003;-83
2023/11/01 17:42:51;;;;;;;;;;;;;;;;;;6280064;28;20365;-85
2023/11/01 17:45:51;;;;;;;;;;;;;;;;;;6314319;28;19919;-85
2023/11/01 17:48:51;;;;;;;;;;;;;;;;;;6292971;28;20447;-85
2023/11/01 17:51:51;;;;;;;;;;;;;;;;;;6291899;28;19925;-86
2023/11/01 17:54:52;;;;;;;;;;;;;;;;;;6307340;28;19956;-85
2023/11/01 17:57:52;;;;;;;;;;;;;;;;;;6296958;28;19908;-87
2023/11/01 18:00:52;;;;;;;;;;;;;;;;;;6292122;28;19912;-87
2023/11/01 18:03:52;;;;;;;;;;;;;;;;;;6272012;28;19957;-87
2023/11/01 18:06:52;;;;;;;;;;;;;;;;;;6309581;28;20377;-87
2023/11/01 18:09:53;;;;;;;;;;;;;;;;;;6281692;28;20351;-88
2023/11/01 18:12:53;;;;;;;;;;;;;;;;;;6275604;28;20362;-89
2023/11/01 18:15:53;;;;;;;;;;;;;;;;;;6278116;28;19917;-88
2023/11/01 18:18:54;;;;;;;;;;;;;;;;;;6290567;28;19916;-92
2023/11/01 18:21:56;;;;;;;;;;;;;;;;;;6281723;28;19964;-90
2023/11/01 18:24:56;;;;;;;;;;;;;;;;;;6276076;28;20377;-89
2023/11/01 18:27:56;;;;;;;;;;;;;;;;;;6296591;28;19916;-89
2023/11/01 18:30:57;;;;;;;;;;;;;;;;;;6306867;28;19921;-91
2023/11/01 18:33:57;;;;;;;;;;;;;;;;;;6280261;28;19908;-89
2023/11/01 18:36:58;;;;;;;;;;;;;;;;;;6265753;28;19921;-91
2023/11/01 18:39:59;;;;;;;;;;;;;;;;;;6276933;28;19920;-90
2023/11/01 18:43:00;;;;;;;;;;;;;;;;;;5927801;28;9999774;-90
2023/11/01 18:46:00;;;;;;;;;;;;;;;;;;6285291;28;20491;-90
2023/11/01 18:49:00;;;;;;;;;;;;;;;;;;6276955;28;19916;-90
2023/11/01 18:52:01;;;;;;;;;;;;;;;;;;6275652;28;19920;-90
2023/11/01 18:55:01;;;;;;;;;;;;;;;;;;6293126;28;19916;-90
2023/11/01 18:58:02;;;;;;;;;;;;;;;;;;6302064;28;19928;-90
2023/11/01 19:01:02;;;;;;;;;;;;;;;;;;6274257;28;19956;-89
2023/11/01 19:04:02;;;;;;;;;;;;;;;;;;6320320;28;19931;-90
2023/11/01 19:07:02;;;;;;;;;;;;;;;;;;6275784;28;19924;-84
2023/11/01 19:10:02;;;;;;;;;;;;;;;;;;6282547;28;19920;-85
2023/11/01 19:13:03;;;;;;;;;;;;;;;;;;6274870;28;20009;-86
2023/11/01 19:16:03;;;;;;;;;;;;;;;;;;6300417;28;20038;-88
2023/11/01 19:19:03;;;;;;;;;;;;;;;;;;6292374;28;20019;-86
2023/11/01 19:22:03;;;;;;;;;;;;;;;;;;6308758;28;19920;-86
2023/11/01 19:25:05;;;;;;;;;;;;;;;;;;6292628;28;20312;-86
2023/11/01 19:28:06;;;;;;;;;;;;;;;;;;6294707;28;19920;-85
2023/11/01 19:31:06;;;;;;;;;;;;;;;;;;6280651;28;20003;-86
2023/11/01 19:34:06;;;;;;;;;;;;;;;;;;6273172;28;19925;-89
2023/11/01 19:37:06;;;;;;;;;;;;;;;;;;6278095;28;20006;-86
2023/11/01 19:40:08;;;;;;;;;;;;;;;;;;6281620;28;19920;-86
2023/11/01 19:43:08;;;;;;;;;;;;;;;;;;6286888;28;20415;-85
2023/11/01 19:46:08;;;;;;;;;;;;;;;;;;6282833;28;19990;-85
2023/11/01 19:49:08;;;;;;;;;;;;;;;;;;6290903;28;19932;-85
2023/11/01 19:52:08;;;;;;;;;;;;;;;;;;6281382;28;20365;-87
2023/11/01 19:55:08;;;;;;;;;;;;;;;;;;6281450;28;19935;-88
2023/11/01 19:58:09;;;;;;;;;;;;;;;;;;6292749;28;20003;-86
2023/11/01 20:01:09;;;;;;;;;;;;;;;;;;6283548;28;20341;-86
2023/11/01 20:04:09;;;;;;;;;;;;;;;;;;6288038;28;20337;-85
2023/11/01 20:07:09;;;;;;;;;;;;;;;;;;6296647;28;19917;-86
2023/11/01 20:10:10;;;;;;;;;;;;;;;;;;6277375;28;19917;-86
2023/11/01 20:13:10;;;;;;;;;;;;;;;;;;6279215;28;19990;-85
2023/11/01 20:16:11;;;;;;;;;;;;;;;;;;6284183;28;19913;-85
2023/11/01 20:19:11;;;;;;;;;;;;;;;;;;6276836;28;19928;-88
2023/11/01 20:22:12;;;;;;;;;;;;;;;;;;6292470;28;20347;-86
2023/11/01 20:25:12;;;;;;;;;;;;;;;;;;6296926;28;19913;-84
2023/11/01 20:28:12;;;;;;;;;;;;;;;;;;6283034;28;19924;-86
2023/11/01 20:31:12;;;;;;;;;;;;;;;;;;6281922;28;19917;-86
2023/11/01 20:34:12;;;;;;;;;;;;;;;;;;6278307;28;19993;-86